Home > Products > Valid Products > MTR

000
SAUS44 KLZK 251954
MTRMWT
METAR KMWT 251953Z AUTO VRB03KT 10SM CLR 29/17 A3004 RMK AO2 SLP164
T02940167





000
SAUS44 KLZK 251854
MTRMWT
METAR KMWT 251853Z AUTO VRB05KT 10SM CLR 28/17 A3006 RMK AO2 SLP173
T02830172





000
SAUS44 KLZK 251854
MTRMWT
METAR KMWT 251853Z AUTO VRB05KT 10SM CLR 28/17 A3006 RMK AO2 SLP173
T02830172





000
SAUS44 KLZK 251754
MTRMWT
METAR KMWT 251753Z AUTO 31005KT 10SM CLR 28/17 A3008 RMK AO2 SLP180
T02780167 10278 20122 58013





000
SAUS44 KLZK 251754
MTRMWT
METAR KMWT 251753Z AUTO 31005KT 10SM CLR 28/17 A3008 RMK AO2 SLP180
T02780167 10278 20122 58013





000
SAUS44 KLZK 251654
MTRMWT
METAR KMWT 251653Z AUTO VRB05KT 10SM CLR 27/17 A3011 RMK AO2 SLP187
T02670167





000
SAUS44 KLZK 251654
MTRMWT
METAR KMWT 251653Z AUTO VRB05KT 10SM CLR 27/17 A3011 RMK AO2 SLP187
T02670167





000
SAUS44 KLZK 251554
MTRMWT
METAR KMWT 251553Z AUTO VRB05KT 10SM CLR 24/17 A3011 RMK AO2 SLP191
T02440167





000
SAUS44 KLZK 251454
MTRMWT
METAR KMWT 251453Z AUTO 00000KT 10SM CLR 21/17 A3013 RMK AO2 SLP195
T02060172 51010





000
SAUS44 KLZK 251354
MTRMWT
METAR KMWT 251353Z AUTO 00000KT 4SM BR CLR 16/14 A3012 RMK AO2
SLP197 T01560144





000
SAUS44 KLZK 251306
MTRMWT
SPECI KMWT 251304Z AUTO 00000KT 4SM BR CLR 12/12 A3011 RMK AO2
T01220117





000
SAUS44 KLZK 251254
MTRMWT
METAR KMWT 251253Z AUTO 00000KT 2 1/2SM BR CLR 13/12 A3011 RMK AO2
SLP194 T01280117





000
SAUS44 KLZK 251240
MTRMWT
SPECI KMWT 251238Z AUTO 00000KT 2 1/2SM BR CLR 12/12 A3010 RMK AO2
T01220117





000
SAUS44 KLZK 251226
MTRMWT
SPECI KMWT 251224Z AUTO 00000KT 1 3/4SM BR CLR 13/12 A3010 RMK AO2
T01280117





000
SAUS44 KLZK 251217
MTRMWT
SPECI KMWT 251216Z AUTO 00000KT 2SM BR CLR 13/12 A3010 RMK AO2
T01330122





000
SAUS44 KLZK 251203
MTRMWT
SPECI KMWT 251202Z AUTO 00000KT 1SM BR CLR 13/12 A3010 RMK AO2
T01330122





000
SAUS44 KLZK 251203
MTRMWT
SPECI KMWT 251202Z AUTO 00000KT 1SM BR CLR 13/12 A3010 RMK AO2
T01330122





000
SAUS44 KLZK 251154
MTRMWT
METAR KMWT 251153Z AUTO 00000KT 2SM BR CLR 13/12 A3009 RMK AO2
SLP188 T01280122 10139 20122 51004





000
SAUS44 KLZK 251154
MTRMWT
METAR KMWT 251153Z AUTO 00000KT 2SM BR CLR 13/12 A3009 RMK AO2
SLP188 T01280122 10139 20122 51004





000
SAUS44 KLZK 251054
MTRMWT
METAR KMWT 251053Z AUTO 00000KT 5SM BR CLR 12/12 A3009 RMK AO2
SLP186 T01220117





000
SAUS44 KLZK 251054
MTRMWT
METAR KMWT 251053Z AUTO 00000KT 5SM BR CLR 12/12 A3009 RMK AO2
SLP186 T01220117





000
SAUS44 KLZK 251034
MTRMWT
SPECI KMWT 251032Z AUTO 00000KT 2 1/2SM BR CLR 13/12 A3009 RMK AO2
T01330122





000
SAUS44 KLZK 251034
MTRMWT
SPECI KMWT 251032Z AUTO 00000KT 2 1/2SM BR CLR 13/12 A3009 RMK AO2
T01330122





000
SAUS44 KLZK 250954
MTRMWT
METAR KMWT 250953Z AUTO 00000KT 4SM BR CLR 12/12 A3008 RMK AO2
SLP181 T01220117





000
SAUS44 KLZK 250851
MTRMWT
METAR KMWT 250850Z AUTO 00000KT 3SM BR CLR 13/12 A3009 RMK AO2
SLP181 T01280122 56004





000
SAUS44 KLZK 250838
MTRMWT
SPECI KMWT 250837Z AUTO 00000KT 1 3/4SM BR CLR 13/12 A3009 RMK AO2
T01280122





000
SAUS44 KLZK 250821
MTRMWT
SPECI KMWT 250820Z AUTO 00000KT 3SM BR CLR 13/12 A3009 RMK AO2
T01280122





000
SAUS44 KLZK 250801
MTRMWT
SPECI KMWT 250800Z AUTO 00000KT 1 3/4SM BR CLR 13/12 A3009 RMK AO2
T01330122





000
SAUS44 KLZK 250754
MTRMWT
METAR KMWT 250753Z AUTO 00000KT 3/4SM BR CLR 13/12 A3009 RMK AO2
SLP182 T01330122





000
SAUS44 KLZK 250743 COR
MTRMWT
SPECI KMWT 250739Z AUTO 00000KT 3/4SM BR CLR 13/12 A3009 RMK AO2
T01330122





000
SAUS44 KLZK 250722 COR
MTRMWT
SPECI KMWT 250718Z AUTO 00000KT 1 1/4SM BR CLR 13/12 A3009 RMK AO2
T01330122





000
SAUS44 KLZK 250710
MTRMWT
SPECI KMWT 250709Z AUTO 00000KT 3/4SM BR CLR 13/13 A3009 RMK AO2
T01330128





000
SAUS44 KLZK 250655
MTRMWT
METAR KMWT 250653Z AUTO 00000KT 1 1/4SM BR CLR 14/13 A3009 RMK AO2
SLP184 T01390128





000
SAUS44 KLZK 250639
MTRMWT
SPECI KMWT 250638Z AUTO 00000KT 2 1/2SM BR CLR 14/13 A3009 RMK AO2
T01390128





000
SAUS44 KLZK 250554
MTRMWT
METAR KMWT 250553Z AUTO 00000KT 3SM BR CLR 14/13 A3010 RMK AO2
SLP186 T01390133 10183 20139 402610078 55000





000
SAUS44 KLZK 250542
MTRMWT
SPECI KMWT 250541Z AUTO 00000KT 3SM BR CLR 14/13 A3009 RMK AO2
T01390128





000
SAUS44 KLZK 250532
MTRMWT
SPECI KMWT 250530Z AUTO 00000KT 1 1/2SM BR CLR 14/14 A3010 RMK AO2
T01440139





000
SAUS44 KLZK 250516
MTRMWT
SPECI KMWT 250515Z AUTO 00000KT 3SM BR CLR 14/13 A3010 RMK AO2
T01440133





000
SAUS44 KLZK 250454
MTRMWT
METAR KMWT 250453Z AUTO 00000KT 2 1/2SM BR CLR 15/14 A3010 RMK AO2
VIS 1 3/4V4 SLP185 T01500139





000
SAUS44 KLZK 250354
MTRMWT
METAR KMWT 250353Z AUTO 00000KT 5SM BR CLR 15/14 A3009 RMK AO2
SLP186 T01500139





000
SAUS44 KLZK 250354
MTRMWT
METAR KMWT 250353Z AUTO 00000KT 5SM BR CLR 15/14 A3009 RMK AO2
SLP186 T01500139





000
SAUS44 KLZK 250257 COR
MTRMWT
METAR KMWT 250253Z AUTO 00000KT 5SM BR CLR 16/14 A3010 RMK AO2
SLP190 T01560144 53008





000
SAUS44 KLZK 250154
MTRMWT
METAR KMWT 250153Z AUTO 00000KT 7SM CLR 16/15 A3009 RMK AO2 SLP188
T01610150





000
SAUS44 KLZK 250054
MTRMWT
METAR KMWT 250053Z AUTO 00000KT 10SM CLR 17/16 A3008 RMK AO2 SLP186
T01720156





000
SAUS44 KLZK 242354
MTRMWT
METAR KMWT 242353Z AUTO 00000KT 10SM CLR 19/16 A3007 RMK AO2 SLP183
T01890161 10261 20189 51000





000
SAUS44 KLZK 242254
MTRMWT
METAR KMWT 242253Z AUTO 00000KT 10SM CLR 21/17 A3007 RMK AO2 SLP181
T02110167





000
SAUS44 KLZK 242154
MTRMWT
METAR KMWT 242153Z AUTO 00000KT 10SM BKN042 24/17 A3008 RMK AO2
SLP182 T02390167





000
SAUS44 KLZK 242054
MTRMWT
METAR KMWT 242053Z AUTO VRB03KT 10SM CLR 26/16 A3007 RMK AO2 SLP180
T02560156 56019





000
SAUS44 KLZK 241954
MTRMWT
METAR KMWT 241953Z AUTO 21003KT 10SM CLR 26/16 A3008 RMK AO2 SLP181
T02560156





000
SAUS44 KLZK 241954
MTRMWT
METAR KMWT 241953Z AUTO 21003KT 10SM CLR 26/16 A3008 RMK AO2 SLP181
T02560156





000
SAUS44 KLZK 241854
MTRMWT
METAR KMWT 241853Z AUTO 00000KT 10SM CLR 24/15 A3010 RMK AO2 SLP190
T02440150





000
SAUS44 KLZK 241754
MTRMWT
METAR KMWT 241753Z AUTO VRB04KT 10SM CLR 23/14 A3013 RMK AO2 SLP199
T02280139 10239 20078 58012





000
SAUS44 KLZK 241654
MTRMWT
METAR KMWT 241653Z AUTO 00000KT 10SM CLR 21/13 A3015 RMK AO2 SLP205
T02110128





000
SAUS44 KLZK 241554
MTRMWT
METAR KMWT 241553Z AUTO 00000KT 10SM CLR 18/12 A3016 RMK AO2 SLP210
T01780122





000
SAUS44 KLZK 241454
MTRMWT
METAR KMWT 241453Z AUTO 00000KT 10SM CLR 13/12 A3016 RMK AO2 SLP215
T01330117 53010





000
SAUS44 KLZK 241354
MTRMWT
METAR KMWT 241353Z AUTO 00000KT 10SM CLR 10/09 A3015 RMK AO2 SLP210
T01000094





000
SAUS44 KLZK 241254
MTRMWT
METAR KMWT 241253Z AUTO 00000KT 6SM BR CLR 08/07 A3014 RMK AO2
SLP208 T00780067





000
SAUS44 KLZK 241154
MTRMWT
METAR KMWT 241153Z AUTO 00000KT 5SM BR CLR 08/07 A3013 RMK AO2
SLP205 T00780072 10106 20078 53003





000
SAUS44 KLZK 241054
MTRMWT
METAR KMWT 241053Z AUTO 00000KT 5SM BR CLR 08/07 A3013 RMK AO2
SLP202 T00830072





000
SAUS44 KLZK 241054
MTRMWT
METAR KMWT 241053Z AUTO 00000KT 5SM BR CLR 08/07 A3013 RMK AO2
SLP202 T00830072





000
SAUS44 KLZK 240954
MTRMWT
METAR KMWT 240953Z AUTO 00000KT 6SM BR CLR 08/08 A3013 RMK AO2
SLP200 T00830078





000
SAUS44 KLZK 240854
MTRMWT
METAR KMWT 240853Z AUTO 00000KT 6SM BR CLR 09/08 A3012 RMK AO2
SLP199 T00890078 58000





000
SAUS44 KLZK 240755
MTRMWT
METAR KMWT 240753Z AUTO 00000KT 5SM BR CLR 09/08 A3013 RMK AO2
SLP200 T00940083





000
SAUS44 KLZK 240715
MTRMWT
SPECI KMWT 240714Z AUTO 00000KT 3SM BR CLR 09/09 A3013 RMK AO2
T00940089





000
SAUS44 KLZK 240710
MTRMWT
SPECI KMWT 240708Z AUTO 00000KT 1 1/2SM BR FEW002 10/09 A3012 RMK
AO2 T01000089





000
SAUS44 KLZK 240701
MTRMWT
SPECI KMWT 240700Z AUTO 00000KT 2 1/2SM BR FEW002 10/09 A3012 RMK
AO2 T01000089





000
SAUS44 KLZK 240657 COR
MTRMWT
METAR KMWT 240653Z AUTO 00000KT 5SM BR CLR 10/09 A3013 RMK AO2
SLP199 T01000089





000
SAUS44 KLZK 240643
MTRMWT
SPECI KMWT 240642Z AUTO 00000KT 4SM BR CLR 10/09 A3012 RMK AO2
T01000089





000
SAUS44 KLZK 240631
MTRMWT
SPECI KMWT 240630Z AUTO 00000KT 2SM BR CLR 10/09 A3012 RMK AO2
T01000094





000
SAUS44 KLZK 240554
MTRMWT
METAR KMWT 240553Z AUTO 00000KT 6SM BR CLR 10/09 A3013 RMK AO2
SLP200 60000 T01000094 10156 20100 402110089 58000





000
SAUS44 KLZK 240454
MTRMWT
METAR KMWT 240453Z AUTO 00000KT 6SM BR CLR 11/10 A3012 RMK AO2
SLP200 T01060100





000
SAUS44 KLZK 240454
MTRMWT
METAR KMWT 240453Z AUTO 00000KT 6SM BR CLR 11/10 A3012 RMK AO2
SLP200 T01060100





000
SAUS44 KLZK 240404
MTRMWT
SPECI KMWT 240404Z AUTO 00000KT 4SM BR CLR 11/11 A3014 RMK AO2
T01110106





000
SAUS44 KLZK 240404
MTRMWT
SPECI KMWT 240404Z AUTO 00000KT 4SM BR CLR 11/11 A3014 RMK AO2
T01110106





000
SAUS44 KLZK 240357
MTRMWT
SPECI KMWT 240355Z AUTO 00000KT 1 3/4SM BR CLR 12/11 A3013 RMK AO2
VIS 1/2V5 T01170106





000
SAUS44 KLZK 240357
MTRMWT
SPECI KMWT 240355Z AUTO 00000KT 1 3/4SM BR CLR 12/11 A3013 RMK AO2
VIS 1/2V5 T01170106





000
SAUS44 KLZK 240254
MTRMWT
METAR KMWT 240253Z AUTO 00000KT 9SM CLR 12/11 A3013 RMK AO2 SLP202
60000 T01220111 51007





000
SAUS44 KLZK 240254
MTRMWT
METAR KMWT 240253Z AUTO 00000KT 9SM CLR 12/11 A3013 RMK AO2 SLP202
60000 T01220111 51007





000
SAUS44 KLZK 240154
MTRMWT
METAR KMWT 240153Z AUTO 00000KT 10SM FEW120 13/12 A3012 RMK AO2
SLP199 T01330117





000
SAUS44 KLZK 240154
MTRMWT
METAR KMWT 240153Z AUTO 00000KT 10SM FEW120 13/12 A3012 RMK AO2
SLP199 T01330117





000
SAUS44 KLZK 240054
MTRMWT
METAR KMWT 240053Z AUTO 00000KT 10SM FEW120 14/12 A3012 RMK AO2
RAB21E30 SLP200 P0000 T01440122





000
SAUS44 KLZK 232354
MTRMWT
METAR KMWT 232353Z AUTO 00000KT 10SM CLR 16/13 A3010 RMK AO2 SLP194
T01560128 10211 20156 55002





000
SAUS44 KLZK 232254
MTRMWT
METAR KMWT 232253Z AUTO 00000KT 10SM CLR 17/12 A3010 RMK AO2 SLP192
T01720122





000
SAUS44 KLZK 232154
MTRMWT
METAR KMWT 232153Z AUTO VRB03KT 10SM CLR 21/11 A3010 RMK AO2 SLP191
T02060111





000
SAUS44 KLZK 232154
MTRMWT
METAR KMWT 232153Z AUTO VRB03KT 10SM CLR 21/11 A3010 RMK AO2 SLP191
T02060111





000
SAUS44 KLZK 232054
MTRMWT
METAR KMWT 232053Z AUTO 00000KT 10SM FEW110 21/09 A3011 RMK AO2
SLP195 T02060094 56017





000
SAUS44 KLZK 231954
MTRMWT
METAR KMWT 231953Z AUTO 00000KT 10SM BKN110 19/09 A3012 RMK AO2
SLP199 T01890089





000
SAUS44 KLZK 231954
MTRMWT
METAR KMWT 231953Z AUTO 00000KT 10SM BKN110 19/09 A3012 RMK AO2
SLP199 T01890089





000
SAUS44 KLZK 231854
MTRMWT
METAR KMWT 231853Z AUTO 00000KT 10SM CLR 19/09 A3014 RMK AO2 SLP203
T01940094





000
SAUS44 KLZK 231854
MTRMWT
METAR KMWT 231853Z AUTO 00000KT 10SM CLR 19/09 A3014 RMK AO2 SLP203
T01940094





000
SAUS44 KLZK 231754
MTRMWT
METAR KMWT 231753Z AUTO 00000KT 10SM CLR 17/09 A3016 RMK AO2 SLP213
T01720089 10172 20100 58012





000
SAUS44 KLZK 231754
MTRMWT
METAR KMWT 231753Z AUTO 00000KT 10SM CLR 17/09 A3016 RMK AO2 SLP213
T01720089 10172 20100 58012





000
SAUS44 KLZK 231654
MTRMWT
METAR KMWT 231653Z AUTO 00000KT 10SM CLR 16/11 A3019 RMK AO2 SLP224
T01560106





000
SAUS44 KLZK 231654
MTRMWT
METAR KMWT 231653Z AUTO 00000KT 10SM CLR 16/11 A3019 RMK AO2 SLP224
T01560106





000
SAUS44 KLZK 231554
MTRMWT
METAR KMWT 231553Z AUTO VRB03KT 10SM CLR 14/11 A3021 RMK AO2 SLP229
T01390111





000
SAUS44 KLZK 231454
MTRMWT
METAR KMWT 231453Z AUTO 00000KT 10SM CLR 12/11 A3020 RMK AO2 SLP227
T01170106 53012





000
SAUS44 KLZK 231454
MTRMWT
METAR KMWT 231453Z AUTO 00000KT 10SM CLR 12/11 A3020 RMK AO2 SLP227
T01170106 53012





000
SAUS44 KLZK 231354
MTRMWT
METAR KMWT 231353Z AUTO 00000KT 7SM CLR 11/10 A3018 RMK AO2 SLP220
T01110100





000
SAUS44 KLZK 231254
MTRMWT
METAR KMWT 231253Z AUTO 00000KT 9SM CLR 10/09 A3017 RMK AO2 SLP216
T01000094





000
SAUS44 KLZK 231154
MTRMWT
METAR KMWT 231153Z AUTO 26003KT 6SM BR CLR 10/09 A3016 RMK AO2
SLP214 T01000094 10106 20089 51007





000
SAUS44 KLZK 231054
MTRMWT
METAR KMWT 231053Z AUTO 00000KT 7SM CLR 10/09 A3015 RMK AO2 SLP208
T01000094





000
SAUS44 KLZK 230954
MTRMWT
METAR KMWT 230953Z AUTO 00000KT 7SM CLR 09/08 A3016 RMK AO2 SLP212
T00940083





000
SAUS44 KLZK 230954
MTRMWT
METAR KMWT 230953Z AUTO 00000KT 7SM CLR 09/08 A3016 RMK AO2 SLP212
T00940083





000
SAUS44 KLZK 230854
MTRMWT
METAR KMWT 230853Z AUTO 00000KT 6SM BR CLR 09/08 A3014 RMK AO2
SLP204 T00890083 56009





000
SAUS44 KLZK 230754
MTRMWT
METAR KMWT 230753Z AUTO 00000KT 6SM BR CLR 10/09 A3014 RMK AO2
SLP202 T01000089





000
SAUS44 KLZK 230654
MTRMWT
METAR KMWT 230653Z AUTO 00000KT 5SM BR CLR 09/08 A3015 RMK AO2
SLP207 T00940083





000
SAUS44 KLZK 230554
MTRMWT
METAR KMWT 230553Z AUTO 28003KT 5SM BR CLR 09/08 A3017 RMK AO2
SLP214 T00890083 10156 20089 402330089 55001





000
SAUS44 KLZK 230554
MTRMWT
METAR KMWT 230553Z AUTO 28003KT 5SM BR CLR 09/08 A3017 RMK AO2
SLP214 T00890083 10156 20089 402330089 55001





000
SAUS44 KLZK 230454
MTRMWT
METAR KMWT 230453Z AUTO 00000KT 4SM BR CLR 10/09 A3016 RMK AO2
SLP211 T01000094





000
SAUS44 KLZK 230454
MTRMWT
METAR KMWT 230453Z AUTO 00000KT 4SM BR CLR 10/09 A3016 RMK AO2
SLP211 T01000094





000
SAUS44 KLZK 230354
MTRMWT
METAR KMWT 230353Z AUTO 00000KT 5SM BR CLR 11/09 A3017 RMK AO2
SLP217 T01110094





000
SAUS44 KLZK 230354
MTRMWT
METAR KMWT 230353Z AUTO 00000KT 5SM BR CLR 11/09 A3017 RMK AO2
SLP217 T01110094





000
SAUS44 KLZK 230254
MTRMWT
METAR KMWT 230253Z AUTO 00000KT 6SM BR CLR 12/11 A3017 RMK AO2
SLP217 T01170106 51011





000
SAUS44 KLZK 230154
MTRMWT
METAR KMWT 230153Z AUTO 00000KT 8SM CLR 12/12 A3016 RMK AO2 SLP214
T01220117





000
SAUS44 KLZK 230154
MTRMWT
METAR KMWT 230153Z AUTO 00000KT 8SM CLR 12/12 A3016 RMK AO2 SLP214
T01220117





000
SAUS44 KLZK 230054
MTRMWT
METAR KMWT 230053Z AUTO 00000KT 10SM CLR 14/12 A3015 RMK AO2 SLP210
T01390117





000
SAUS44 KLZK 230054
MTRMWT
METAR KMWT 230053Z AUTO 00000KT 10SM CLR 14/12 A3015 RMK AO2 SLP210
T01390117





000
SAUS44 KLZK 222354
MTRMWT
METAR KMWT 222353Z AUTO 00000KT 10SM CLR 16/13 A3014 RMK AO2 SLP206
T01560128 10233 20156 53002





000
SAUS44 KLZK 222354
MTRMWT
METAR KMWT 222353Z AUTO 00000KT 10SM CLR 16/13 A3014 RMK AO2 SLP206
T01560128 10233 20156 53002





000
SAUS44 KLZK 222254
MTRMWT
METAR KMWT 222253Z AUTO 08003KT 10SM CLR 21/12 A3012 RMK AO2 SLP195
T02110117





000
SAUS44 KLZK 222254
MTRMWT
METAR KMWT 222253Z AUTO 08003KT 10SM CLR 21/12 A3012 RMK AO2 SLP195
T02110117





000
SAUS44 KLZK 222155
MTRMWT
METAR KMWT 222153Z AUTO 06004KT 10SM CLR 22/11 A3012 RMK AO2 SLP195
T02220111





000
SAUS44 KLZK 222054
MTRMWT
METAR KMWT 222053Z AUTO VRB03KT 10SM CLR 23/11 A3013 RMK AO2 SLP200
T02280111 56018





    US Dept of Commerce
    National Oceanic and Atmospheric Administration
    National Weather Service
    1325 East West Highway
    Silver Spring, MD 20910
    Page Author: NWS Internet Services Team
Disclaimer
Information Quality
Credits
Glossary
Privacy Policy
Freedom of Information Act (FOIA)
About Us
Career Opportunities